Time;durP1;ratioP1;P1;durP2;ratioP2;P2;SDS_P1;SDS_P2;PMS_P1;PMS_P2;Temp;Humidity;BMP_temperature;BMP_pressure;BME280_temperature;BME280_humidity;BME280_pressure;Samples;Min_cycle;Max_cycle;Signal;HPM_P1;HPM_P2
2021/12/19 00:00:45;;;;;;;9.50;4.90;;;6.10;99.90;;;;;;4141365;28;20458;-83
2021/12/19 00:03:03;;;;;;;10.33;5.47;;;6.00;99.90;;;;;;4140285;28;20997;-84
2021/12/19 00:09:45;;;;;;;9.57;5.23;;;6.10;99.90;;;;;;4146889;28;20494;-83
2021/12/19 00:11:47;;;;;;;10.40;5.37;;;6.00;99.90;;;;;;4146597;28;20987;-83
2021/12/19 00:13:50;;;;;;;11.13;5.67;;;6.10;99.90;;;;;;4139135;28;20544;-84
2021/12/19 00:15:52;;;;;;;12.00;5.60;;;6.10;99.90;;;;;;4139084;28;20556;-83
2021/12/19 00:17:54;;;;;;;13.60;5.80;;;6.10;99.90;;;;;;4147243;28;20949;-83
2021/12/19 00:19:55;;;;;;;11.23;6.30;;;6.10;99.90;;;;;;4140401;28;20509;-83
2021/12/19 00:21:57;;;;;;;12.10;6.30;;;6.10;99.90;;;;;;4145941;28;20553;-84
2021/12/19 00:23:59;;;;;;;16.30;6.33;;;6.10;99.90;;;;;;4143953;28;20530;-83
2021/12/19 00:26:02;;;;;;;14.83;6.70;;;6.10;99.90;;;;;;4143303;28;20522;-84
2021/12/19 00:28:04;;;;;;;18.83;7.57;;;6.10;99.90;;;;;;4146809;28;20452;-84
2021/12/19 00:30:07;;;;;;;15.03;7.20;;;6.10;99.90;;;;;;4141047;28;20538;-84
2021/12/19 00:32:09;;;;;;;18.40;7.50;;;6.10;99.90;;;;;;4140463;28;20463;-84
2021/12/19 00:34:11;;;;;;;12.43;6.40;;;6.10;99.90;;;;;;4150347;28;20458;-84
2021/12/19 00:36:14;;;;;;;12.83;6.10;;;6.10;99.90;;;;;;4141422;28;20486;-83
2021/12/19 00:38:16;;;;;;;13.27;5.83;;;6.10;99.90;;;;;;4146308;28;20522;-84
2021/12/19 00:40:19;;;;;;;18.30;8.17;;;6.10;99.90;;;;;;4133783;28;20472;-83
2021/12/19 00:42:30;;;;;;;27.10;10.10;;;6.10;99.90;;;;;;4135784;28;20500;-84
2021/12/19 00:44:32;;;;;;;23.63;9.37;;;6.10;99.90;;;;;;4139490;28;20455;-83
2021/12/19 00:46:42;;;;;;;18.27;7.57;;;6.10;99.90;;;;;;4170052;22;20502;-87
2021/12/19 00:48:46;;;;;;;15.53;7.37;;;6.10;99.90;;;;;;4141705;28;20455;-85
2021/12/19 00:50:47;;;;;;;19.10;8.43;;;6.10;99.90;;;;;;4143496;28;20490;-87
2021/12/19 00:52:49;;;;;;;20.23;7.77;;;6.20;99.90;;;;;;4142010;28;20463;-86
2021/12/19 00:54:51;;;;;;;14.30;7.47;;;6.10;99.90;;;;;;4146357;28;20471;-86
2021/12/19 00:56:53;;;;;;;15.60;7.50;;;6.10;99.90;;;;;;4145074;28;20502;-85
2021/12/19 00:58:57;;;;;;;13.80;6.97;;;6.10;99.90;;;;;;4146398;28;20558;-85
2021/12/19 01:00:59;;;;;;;19.90;7.97;;;6.10;99.90;;;;;;4145665;28;20968;-85
2021/12/19 01:03:02;;;;;;;17.10;8.50;;;6.10;99.90;;;;;;4135682;28;20466;-86
2021/12/19 01:05:05;;;;;;;13.53;6.87;;;6.10;99.90;;;;;;4130850;28;20516;-85
2021/12/19 01:07:07;;;;;;;16.67;7.27;;;6.10;99.90;;;;;;4132540;28;20483;-85
2021/12/19 01:09:09;;;;;;;15.23;6.80;;;6.20;99.90;;;;;;4144045;28;20468;-85
2021/12/19 01:11:11;;;;;;;12.00;6.47;;;6.10;99.90;;;;;;4139330;28;20461;-85
2021/12/19 01:13:14;;;;;;;14.80;6.80;;;6.30;99.90;;;;;;4131051;28;20460;-85
2021/12/19 01:15:20;;;;;;;17.13;7.90;;;6.10;99.90;;;;;;4130909;28;20563;-85
2021/12/19 01:17:22;;;;;;;13.77;7.50;;;6.20;99.90;;;;;;4148125;28;20534;-86
2021/12/19 01:19:24;;;;;;;14.13;7.00;;;6.00;99.90;;;;;;4151068;28;20507;-85
2021/12/19 01:21:26;;;;;;;13.43;6.27;;;6.10;99.90;;;;;;4146243;28;20467;-85
2021/12/19 01:23:28;;;;;;;16.67;6.47;;;6.10;99.90;;;;;;4150652;28;20472;-85
2021/12/19 01:25:30;;;;;;;16.53;6.77;;;6.10;99.90;;;;;;4142276;28;20462;-86
2021/12/19 01:27:31;;;;;;;14.60;6.57;;;6.10;99.90;;;;;;4150128;28;20491;-85
2021/12/19 01:29:33;;;;;;;12.13;6.57;;;6.30;99.90;;;;;;4148185;28;20451;-85
2021/12/19 01:31:36;;;;;;;14.93;6.20;;;6.10;99.90;;;;;;4144995;28;20469;-86
2021/12/19 01:33:38;;;;;;;12.70;6.50;;;6.10;99.90;;;;;;4143378;28;20444;-86
2021/12/19 01:35:40;;;;;;;13.03;6.67;;;6.10;99.90;;;;;;4145029;28;20479;-89
2021/12/19 01:37:43;;;;;;;15.53;7.17;;;6.10;99.90;;;;;;4150920;28;20467;-85
2021/12/19 01:39:44;;;;;;;11.67;6.43;;;6.10;99.90;;;;;;4148157;28;20460;-85
2021/12/19 01:41:48;;;;;;;10.67;5.93;;;6.10;99.90;;;;;;4162879;28;20498;-84
2021/12/19 01:43:50;;;;;;;11.00;5.83;;;6.10;99.90;;;;;;4155984;28;20460;-85
2021/12/19 01:45:53;;;;;;;15.40;5.67;;;6.10;99.90;;;;;;4149598;28;20454;-84
2021/12/19 01:47:57;;;;;;;11.90;5.87;;;6.10;99.90;;;;;;4149676;28;20486;-84
2021/12/19 01:49:59;;;;;;;12.10;6.20;;;6.10;99.90;;;;;;4145418;28;20490;-85
2021/12/19 01:52:01;;;;;;;10.70;5.50;;;6.10;99.90;;;;;;4136882;28;20465;-85
2021/12/19 01:54:03;;;;;;;8.43;5.20;;;6.10;99.90;;;;;;4139852;28;20460;-85
2021/12/19 01:56:07;;;;;;;16.17;5.50;;;6.10;99.90;;;;;;4135074;28;20558;-85
2021/12/19 01:58:09;;;;;;;12.23;5.30;;;6.40;99.90;;;;;;4133263;28;20482;-85
2021/12/19 02:00:20;;;;;;;11.60;5.23;;;6.10;99.90;;;;;;4132838;28;20448;-85
2021/12/19 02:02:23;;;;;;;13.10;5.50;;;6.10;99.90;;;;;;4145876;28;20477;-85
2021/12/19 02:04:30;;;;;;;8.57;4.80;;;6.10;99.90;;;;;;4143053;28;20459;-84
2021/12/19 02:06:31;;;;;;;8.93;4.60;;;6.10;99.90;;;;;;4137351;28;20530;-85
2021/12/19 02:08:33;;;;;;;11.87;4.63;;;6.10;99.90;;;;;;4146137;28;20544;-85
2021/12/19 02:10:36;;;;;;;11.57;4.93;;;6.30;99.90;;;;;;4148296;28;20489;-85
2021/12/19 02:12:39;;;;;;;10.53;4.60;;;6.10;99.90;;;;;;4156930;28;20459;-84
2021/12/19 02:14:41;;;;;;;12.43;5.13;;;6.10;99.90;;;;;;4148534;28;20461;-85
2021/12/19 02:16:42;;;;;;;8.40;4.53;;;6.10;99.90;;;;;;4154283;28;20507;-84
2021/12/19 02:18:44;;;;;;;10.27;5.00;;;6.10;99.90;;;;;;4157212;28;20480;-85
2021/12/19 02:20:51;;;;;;;7.93;4.97;;;6.10;99.90;;;;;;4143525;28;20463;-84
2021/12/19 02:22:53;;;;;;;10.80;5.97;;;6.10;99.90;;;;;;4156277;28;20463;-84
2021/12/19 02:24:55;;;;;;;10.60;5.90;;;6.00;99.90;;;;;;4148788;28;20468;-84
2021/12/19 02:26:57;;;;;;;13.03;6.17;;;6.20;99.90;;;;;;4140718;28;20484;-84
2021/12/19 02:28:59;;;;;;;10.20;6.03;;;6.10;99.90;;;;;;4133605;28;20539;-85
2021/12/19 02:31:01;;;;;;;13.37;6.17;;;6.10;99.90;;;;;;4145641;28;20494;-85
2021/12/19 02:33:03;;;;;;;15.50;5.83;;;6.10;99.90;;;;;;4142027;28;20536;-84
2021/12/19 02:35:08;;;;;;;14.43;6.67;;;6.40;99.90;;;;;;4147989;28;20474;-85
2021/12/19 02:37:32;;;;;;;14.27;6.77;;;6.10;99.90;;;;;;4145915;28;20996;-85
2021/12/19 02:39:48;;;;;;;14.67;6.53;;;6.00;99.90;;;;;;4140161;28;20550;-85
2021/12/19 02:48:47;;;;;;;13.83;6.40;;;6.00;99.90;;;;;;4149565;28;20461;-84
2021/12/19 02:50:53;;;;;;;14.43;6.47;;;6.00;99.90;;;;;;4138935;28;20517;-84
2021/12/19 02:52:58;;;;;;;12.60;5.90;;;6.00;99.90;;;;;;4132172;28;20523;-85
2021/12/19 02:55:00;;;;;;;12.53;6.17;;;6.00;99.90;;;;;;4142640;28;20478;-85
2021/12/19 02:57:02;;;;;;;12.70;6.10;;;6.00;99.90;;;;;;4143720;28;20618;-85
2021/12/19 02:59:04;;;;;;;14.23;6.30;;;6.00;99.90;;;;;;4147752;28;20475;-84
2021/12/19 03:01:08;;;;;;;8.97;5.47;;;6.00;99.90;;;;;;4140074;28;20533;-84
2021/12/19 03:03:10;;;;;;;14.23;6.37;;;6.00;99.90;;;;;;4141750;28;20454;-84
2021/12/19 03:05:12;;;;;;;14.07;5.87;;;6.00;99.90;;;;;;4146329;28;20474;-85
2021/12/19 03:07:14;;;;;;;12.90;5.70;;;6.00;99.90;;;;;;4147746;28;20521;-85
2021/12/19 03:09:32;;;;;;;15.03;6.23;;;6.00;99.90;;;;;;4143252;28;20472;-85
2021/12/19 03:12:04;;;;;;;12.63;5.23;;;5.90;99.90;;;;;;4138340;28;20563;-85
2021/12/19 03:18:44;;;;;;;10.07;5.30;;;5.90;99.90;;;;;;4148862;28;20476;-85
2021/12/19 03:20:47;;;;;;;10.73;4.90;;;5.90;99.90;;;;;;4145652;28;20483;-84
2021/12/19 03:22:48;;;;;;;7.90;5.17;;;5.90;99.90;;;;;;4137802;28;20507;-84
2021/12/19 03:24:51;;;;;;;9.90;4.60;;;5.90;99.90;;;;;;4138619;28;20457;-85
2021/12/19 03:26:53;;;;;;;12.03;4.97;;;5.90;99.90;;;;;;4132847;28;20487;-84
2021/12/19 03:28:55;;;;;;;8.90;4.50;;;5.90;99.90;;;;;;4139806;28;20977;-85
2021/12/19 03:30:56;;;;;;;12.77;4.83;;;5.90;99.90;;;;;;4143892;28;20959;-84
2021/12/19 03:32:58;;;;;;;9.63;5.03;;;5.90;99.90;;;;;;4147464;28;20463;-85
2021/12/19 03:35:00;;;;;;;11.03;4.47;;;5.80;99.90;;;;;;4146353;28;20533;-84
2021/12/19 03:37:02;;;;;;;9.87;4.63;;;5.90;99.90;;;;;;4144209;28;20495;-85
2021/12/19 03:39:13;;;;;;;8.70;4.07;;;5.90;99.90;;;;;;4131873;28;20458;-84
2021/12/19 03:41:20;;;;;;;11.57;4.73;;;5.80;99.90;;;;;;4145432;28;20470;-84
2021/12/19 03:43:26;;;;;;;6.77;4.57;;;5.80;99.90;;;;;;4143460;28;20880;-84
2021/12/19 03:45:27;;;;;;;9.43;4.30;;;5.80;99.90;;;;;;4139850;28;20537;-84
2021/12/19 03:47:29;;;;;;;10.60;4.30;;;5.80;99.90;;;;;;4146808;28;20544;-84
2021/12/19 03:49:31;;;;;;;12.10;4.60;;;5.80;99.90;;;;;;4146467;28;20459;-85
2021/12/19 03:51:33;;;;;;;9.30;3.83;;;5.80;99.90;;;;;;4146178;28;20499;-84
2021/12/19 03:53:34;;;;;;;10.27;4.80;;;5.80;99.90;;;;;;4146781;28;20460;-84
2021/12/19 03:55:36;;;;;;;7.93;4.03;;;5.70;99.90;;;;;;4138853;28;20975;-84
2021/12/19 03:57:40;;;;;;;11.57;4.80;;;5.90;99.90;;;;;;4157392;28;20493;-85
2021/12/19 03:59:46;;;;;;;8.97;4.10;;;5.70;99.90;;;;;;4157602;28;20476;-84
2021/12/19 04:01:51;;;;;;;7.67;4.47;;;5.70;99.90;;;;;;4157271;28;20458;-85
2021/12/19 04:03:53;;;;;;;12.63;4.67;;;5.70;99.90;;;;;;4132960;28;20488;-84
2021/12/19 04:05:55;;;;;;;8.67;4.30;;;5.70;99.90;;;;;;4134921;28;20470;-84
2021/12/19 04:07:57;;;;;;;7.43;4.40;;;5.60;99.90;;;;;;4133254;28;20479;-85
2021/12/19 04:09:58;;;;;;;8.17;4.50;;;5.60;99.90;;;;;;4138688;28;20518;-85
2021/12/19 04:12:00;;;;;;;11.07;5.37;;;5.60;99.90;;;;;;4132324;28;21022;-85
2021/12/19 04:14:03;;;;;;;9.27;4.43;;;6.10;99.90;;;;;;4146727;28;20463;-84
2021/12/19 04:16:05;;;;;;;8.63;4.20;;;5.50;99.90;;;;;;4147222;28;20495;-84
2021/12/19 04:18:07;;;;;;;9.33;4.37;;;5.50;99.90;;;;;;4137373;28;20522;-85
2021/12/19 04:20:11;;;;;;;11.50;4.93;;;5.50;99.90;;;;;;4133262;28;20472;-85
2021/12/19 04:22:13;;;;;;;12.13;5.13;;;5.50;99.90;;;;;;4134347;28;20468;-85
2021/12/19 04:24:14;;;;;;;11.47;5.20;;;5.50;99.90;;;;;;4146820;28;20841;-84
2021/12/19 04:26:16;;;;;;;10.87;5.07;;;5.40;99.90;;;;;;4147793;28;20509;-84
2021/12/19 04:28:18;;;;;;;11.93;4.67;;;5.50;99.90;;;;;;4146937;28;20471;-85
2021/12/19 04:30:24;;;;;;;8.20;4.83;;;5.40;99.90;;;;;;4143996;28;20507;-85
2021/12/19 04:32:31;;;;;;;13.40;5.37;;;5.40;99.90;;;;;;4151024;28;20526;-84
2021/12/19 04:34:33;;;;;;;11.90;5.33;;;5.40;99.90;;;;;;4143800;28;20468;-84
2021/12/19 04:36:39;;;;;;;9.37;4.90;;;5.40;99.90;;;;;;4144281;28;20487;-83
2021/12/19 04:42:03;;;;;;;9.73;5.37;;;5.40;99.90;;;;;;4141983;28;20512;-84
2021/12/19 04:44:28;;;;;;;13.17;5.20;;;5.40;99.90;;;;;;4163069;28;20471;-84
2021/12/19 04:51:20;;;;;;;8.27;4.73;;;5.30;99.90;;;;;;4143855;28;20454;-84
2021/12/19 04:53:31;;;;;;;11.70;5.10;;;5.30;99.90;;;;;;4137728;28;20482;-84
2021/12/19 04:55:56;;;;;;;8.90;4.63;;;5.30;99.90;;;;;;4146251;28;20529;-84
2021/12/19 04:58:12;;;;;;;10.37;5.03;;;5.30;99.90;;;;;;4138090;28;20545;-84
2021/12/19 05:00:18;;;;;;;13.57;5.20;;;5.30;99.90;;;;;;4146551;28;20458;-84
2021/12/19 05:14:13;;;;;;;10.63;5.33;;;5.30;99.90;;;;;;4130419;28;20475;-84
2021/12/19 05:16:16;;;;;;;12.57;5.57;;;5.20;99.90;;;;;;4139353;28;20479;-84
2021/12/19 05:18:22;;;;;;;12.13;5.83;;;5.30;99.90;;;;;;4141602;28;20527;-84
2021/12/19 05:20:28;;;;;;;10.83;5.17;;;5.20;99.90;;;;;;4132460;28;20514;-84
2021/12/19 05:22:32;;;;;;;10.80;5.60;;;5.20;99.90;;;;;;4133149;28;20467;-84
2021/12/19 05:25:00;;;;;;;9.80;5.40;;;5.20;99.90;;;;;;4141326;28;20483;-85
2021/12/19 05:27:01;;;;;;;12.50;5.33;;;5.20;99.90;;;;;;4141563;28;20487;-85
2021/12/19 05:29:03;;;;;;;10.83;5.47;;;5.20;99.90;;;;;;4158546;28;20478;-84
2021/12/19 05:31:05;;;;;;;12.17;5.60;;;5.20;99.90;;;;;;4157734;28;20534;-84
2021/12/19 05:33:07;;;;;;;12.50;5.43;;;5.20;99.90;;;;;;4161550;28;20808;-86
2021/12/19 05:35:13;;;;;;;12.40;5.73;;;5.20;99.90;;;;;;4149239;28;20494;-84
2021/12/19 05:45:12;;;;;;;9.73;4.87;;;5.20;99.90;;;;;;4135325;28;20472;-86
2021/12/19 05:46:39;;;;;;;14.00;6.00;;;5.20;99.90;;;;;;4141409;28;20477;-84
2021/12/19 05:48:41;;;;;;;10.30;5.33;;;5.20;99.90;;;;;;4139546;28;20546;-85
2021/12/19 05:50:44;;;;;;;13.40;6.00;;;5.20;99.90;;;;;;4145661;28;20501;-84
2021/12/19 05:52:48;;;;;;;10.33;4.97;;;5.20;99.90;;;;;;4138123;28;20882;-84
2021/12/19 05:54:50;;;;;;;9.93;5.00;;;5.30;99.90;;;;;;4147313;28;20881;-84
2021/12/19 05:56:52;;;;;;;9.33;5.13;;;5.60;99.90;;;;;;4145258;28;20490;-84
2021/12/19 05:58:54;;;;;;;7.97;4.73;;;5.30;99.90;;;;;;4133973;28;20466;-84
2021/12/19 06:00:56;;;;;;;10.07;5.07;;;5.30;99.90;;;;;;4141557;28;20845;-84
2021/12/19 06:02:58;;;;;;;9.00;5.03;;;5.30;99.90;;;;;;4139224;28;20461;-83
2021/12/19 06:05:00;;;;;;;10.37;5.07;;;5.30;99.90;;;;;;4147408;28;20476;-85
2021/12/19 06:07:03;;;;;;;12.67;5.30;;;5.30;99.90;;;;;;4141271;28;20537;-88
2021/12/19 06:09:05;;;;;;;9.10;5.00;;;5.30;99.90;;;;;;4148122;28;20450;-84
2021/12/19 06:11:07;;;;;;;10.07;4.97;;;5.20;99.90;;;;;;4148817;28;20474;-84
2021/12/19 06:13:08;;;;;;;9.50;6.20;;;5.30;99.90;;;;;;4149350;28;20482;-85
2021/12/19 06:15:11;;;;;;;8.87;5.10;;;5.30;99.90;;;;;;4140305;28;20460;-84
2021/12/19 06:17:13;;;;;;;10.53;5.50;;;5.30;99.90;;;;;;4133706;28;20541;-83
2021/12/19 06:19:15;;;;;;;9.77;5.37;;;5.50;99.90;;;;;;4146889;28;20533;-83
2021/12/19 06:21:17;;;;;;;8.47;5.00;;;5.30;99.90;;;;;;4143429;28;20545;-85
2021/12/19 06:23:21;;;;;;;10.30;5.17;;;5.30;99.90;;;;;;4141904;28;20811;-84
2021/12/19 06:25:22;;;;;;;10.20;5.43;;;5.30;99.90;;;;;;4149178;28;20474;-84
2021/12/19 06:27:24;;;;;;;10.30;4.73;;;5.30;99.90;;;;;;4149341;28;20480;-85
2021/12/19 06:29:27;;;;;;;9.80;5.20;;;5.30;99.90;;;;;;4146501;28;20474;-85
2021/12/19 06:31:29;;;;;;;9.97;5.13;;;5.30;99.90;;;;;;4143039;28;20963;-84
2021/12/19 06:33:31;;;;;;;8.63;5.07;;;5.20;99.90;;;;;;4136321;28;20459;-84
2021/12/19 06:35:33;;;;;;;7.90;4.73;;;5.20;99.90;;;;;;4143041;28;20487;-84
2021/12/19 06:37:38;;;;;;;10.47;4.87;;;5.60;99.90;;;;;;4141110;28;20999;-85
2021/12/19 06:39:41;;;;;;;8.00;5.00;;;5.20;99.90;;;;;;4138179;28;20554;-83
2021/12/19 06:41:43;;;;;;;9.93;4.93;;;5.30;99.90;;;;;;4143200;28;20468;-84
2021/12/19 06:43:45;;;;;;;9.90;4.57;;;5.30;99.90;;;;;;4135134;28;20526;-84
2021/12/19 06:45:47;;;;;;;9.80;5.10;;;5.30;99.90;;;;;;4134254;28;20525;-85
2021/12/19 06:47:50;;;;;;;10.50;5.13;;;5.30;99.90;;;;;;4149840;28;20525;-83
2021/12/19 06:49:52;;;;;;;10.23;5.03;;;5.30;99.90;;;;;;4149371;28;20459;-84
2021/12/19 06:51:54;;;;;;;9.60;5.60;;;5.30;99.90;;;;;;4149009;28;20473;-83
2021/12/19 06:53:56;;;;;;;12.77;4.90;;;5.30;99.90;;;;;;4140822;28;20431;-84
2021/12/19 06:55:59;;;;;;;9.50;5.20;;;5.30;99.90;;;;;;4149577;28;20443;-83
2021/12/19 06:58:01;;;;;;;10.17;5.23;;;5.30;99.90;;;;;;4152644;28;20494;-83
2021/12/19 07:00:06;;;;;;;10.03;5.77;;;5.20;99.90;;;;;;4155579;28;20566;-82
2021/12/19 07:02:13;;;;;;;9.40;5.53;;;5.20;99.90;;;;;;4150455;28;20551;-83
2021/12/19 07:04:15;;;;;;;11.73;5.17;;;5.30;99.90;;;;;;4146195;28;20475;-83
2021/12/19 07:06:17;;;;;;;9.93;5.20;;;5.20;99.90;;;;;;4148312;28;20550;-82
2021/12/19 07:08:21;;;;;;;8.90;4.73;;;5.20;99.90;;;;;;4152013;28;20466;-83
2021/12/19 07:10:23;;;;;;;8.77;5.13;;;5.20;99.90;;;;;;4149365;28;20475;-82
2021/12/19 07:12:27;;;;;;;10.30;5.40;;;5.40;99.90;;;;;;4149817;28;20473;-83
2021/12/19 07:14:29;;;;;;;9.40;4.63;;;5.30;99.90;;;;;;4149557;28;20477;-82
2021/12/19 07:16:30;;;;;;;8.87;4.87;;;5.30;99.90;;;;;;4139760;28;20513;-84
2021/12/19 07:18:32;;;;;;;7.37;4.40;;;5.30;99.90;;;;;;4138300;28;20503;-84
2021/12/19 07:20:34;;;;;;;9.37;5.03;;;5.30;99.90;;;;;;4134513;28;20538;-84
2021/12/19 07:22:36;;;;;;;9.07;5.37;;;5.60;99.90;;;;;;4145248;28;20461;-84
2021/12/19 07:24:37;;;;;;;10.93;5.27;;;5.30;99.90;;;;;;4146246;28;20475;-84
2021/12/19 07:26:39;;;;;;;8.57;4.83;;;5.30;99.90;;;;;;4142829;28;20501;-84
2021/12/19 07:28:44;;;;;;;9.00;4.80;;;5.30;99.90;;;;;;4139316;28;21019;-84
2021/12/19 07:30:46;;;;;;;9.13;4.70;;;5.40;99.90;;;;;;4141446;28;20471;-84
2021/12/19 07:32:48;;;;;;;9.87;4.87;;;5.40;99.90;;;;;;4146534;28;20466;-84
2021/12/19 07:34:50;;;;;;;7.50;4.40;;;5.40;99.90;;;;;;4135226;28;20981;-84
2021/12/19 07:36:53;;;;;;;8.67;5.07;;;5.40;99.90;;;;;;4138184;28;20743;-84
2021/12/19 07:39:01;;;;;;;10.23;4.87;;;5.40;99.90;;;;;;4146557;28;20494;-84
2021/12/19 07:41:03;;;;;;;8.97;5.10;;;5.40;99.90;;;;;;4147415;28;20931;-84
2021/12/19 07:43:05;;;;;;;7.10;4.60;;;5.40;99.90;;;;;;4145591;28;20480;-84
2021/12/19 07:45:10;;;;;;;8.67;5.03;;;5.40;99.90;;;;;;4146423;28;20944;-84
2021/12/19 07:47:12;;;;;;;9.33;4.53;;;5.40;99.90;;;;;;4142151;28;20509;-84
2021/12/19 07:49:14;;;;;;;11.93;4.93;;;5.40;99.90;;;;;;4147818;28;20960;-84
2021/12/19 07:51:16;;;;;;;10.93;4.83;;;5.40;99.90;;;;;;4146670;28;20490;-84
2021/12/19 07:53:17;;;;;;;9.40;4.87;;;5.40;99.90;;;;;;4144157;28;20470;-84
2021/12/19 07:55:19;;;;;;;13.20;4.40;;;5.40;99.90;;;;;;4147048;28;20521;-84
2021/12/19 07:57:21;;;;;;;7.47;4.63;;;5.40;99.90;;;;;;4146723;28;20545;-83
2021/12/19 07:59:23;;;;;;;9.87;4.87;;;5.40;99.90;;;;;;4142454;28;20506;-84
2021/12/19 08:01:26;;;;;;;9.27;4.87;;;5.50;99.90;;;;;;4139454;28;20474;-83
2021/12/19 08:03:28;;;;;;;8.10;4.33;;;5.50;99.90;;;;;;4142060;28;20463;-84
2021/12/19 08:05:29;;;;;;;10.07;4.30;;;5.50;99.90;;;;;;4141621;28;20455;-84
2021/12/19 08:07:31;;;;;;;8.17;4.00;;;5.40;99.90;;;;;;4149035;28;20533;-84
2021/12/19 08:09:39;;;;;;;9.90;4.90;;;5.40;99.90;;;;;;4144252;28;20469;-84
2021/12/19 08:11:40;;;;;;;7.33;4.30;;;5.40;99.90;;;;;;4140213;28;20630;-83
2021/12/19 08:13:42;;;;;;;8.87;4.10;;;5.40;99.90;;;;;;4140016;28;20495;-84
2021/12/19 08:15:43;;;;;;;9.63;4.37;;;5.50;99.90;;;;;;4142548;28;20273;-84
2021/12/19 08:17:46;;;;;;;9.30;4.10;;;5.40;99.90;;;;;;4140361;28;20540;-84
2021/12/19 08:19:48;;;;;;;8.00;4.17;;;5.50;99.90;;;;;;4141008;28;20460;-84
2021/12/19 08:21:52;;;;;;;7.50;4.37;;;5.40;99.90;;;;;;4137480;28;20490;-84
2021/12/19 08:23:57;;;;;;;7.40;4.53;;;5.50;99.90;;;;;;4143307;28;20458;-84
2021/12/19 08:25:59;;;;;;;8.37;4.27;;;5.50;99.90;;;;;;4139952;28;21147;-84
2021/12/19 08:28:01;;;;;;;8.27;4.67;;;5.50;99.90;;;;;;4139376;28;20521;-84
2021/12/19 08:30:04;;;;;;;9.03;4.57;;;5.40;99.90;;;;;;4140078;28;20454;-84
2021/12/19 08:32:06;;;;;;;8.00;4.50;;;5.40;99.90;;;;;;4142495;28;20458;-84
2021/12/19 08:34:09;;;;;;;12.10;4.10;;;5.40;99.90;;;;;;4140763;28;20486;-84
2021/12/19 08:36:11;;;;;;;8.63;4.33;;;5.50;99.90;;;;;;4143048;28;20477;-84
2021/12/19 08:38:13;;;;;;;9.83;4.37;;;5.50;99.90;;;;;;4138998;28;21030;-84
2021/12/19 08:40:15;;;;;;;7.90;4.17;;;5.50;99.90;;;;;;4140434;28;20467;-84
2021/12/19 08:42:17;;;;;;;8.90;4.40;;;5.50;99.90;;;;;;4142517;28;20467;-84
2021/12/19 08:44:19;;;;;;;6.60;4.30;;;5.50;99.90;;;;;;4137949;28;21007;-84
2021/12/19 08:46:20;;;;;;;9.67;4.60;;;5.50;99.90;;;;;;4140112;28;20479;-84
2021/12/19 08:48:22;;;;;;;8.87;4.33;;;5.50;99.90;;;;;;4137677;28;20554;-84
2021/12/19 08:50:25;;;;;;;8.33;4.20;;;5.50;99.90;;;;;;4138487;28;20459;-84
2021/12/19 08:52:27;;;;;;;8.17;4.10;;;5.50;99.90;;;;;;4142208;28;20467;-84
2021/12/19 08:54:29;;;;;;;7.67;4.37;;;5.50;99.90;;;;;;4141297;28;20478;-84
2021/12/19 08:56:31;;;;;;;10.20;4.70;;;5.60;99.90;;;;;;4143723;28;20483;-84
2021/12/19 08:58:33;;;;;;;7.53;4.00;;;5.60;99.90;;;;;;4141970;28;22070;-84
2021/12/19 09:00:34;;;;;;;10.27;4.77;;;5.60;99.90;;;;;;4143243;28;20460;-84
2021/12/19 09:02:36;;;;;;;9.87;4.27;;;5.60;99.90;;;;;;4143157;28;20833;-84
2021/12/19 09:04:38;;;;;;;8.60;4.40;;;5.60;99.90;;;;;;4143759;28;20478;-84
2021/12/19 09:06:41;;;;;;;10.00;4.40;;;5.60;99.90;;;;;;4142909;28;20476;-83
2021/12/19 09:08:43;;;;;;;8.13;4.13;;;5.60;99.90;;;;;;4141426;28;20518;-83
2021/12/19 09:10:45;;;;;;;10.30;4.60;;;5.70;99.90;;;;;;4142117;28;20472;-83
2021/12/19 09:12:47;;;;;;;6.90;3.80;;;5.60;99.90;;;;;;4137753;28;20934;-83
2021/12/19 09:14:48;;;;;;;6.40;3.90;;;5.80;99.90;;;;;;4147298;28;20961;-83
2021/12/19 09:16:50;;;;;;;9.60;3.97;;;6.00;99.90;;;;;;4146711;28;20530;-83
2021/12/19 09:18:52;;;;;;;8.43;3.67;;;5.70;99.90;;;;;;4148519;28;21343;-83
2021/12/19 09:20:54;;;;;;;8.40;4.03;;;5.70;99.90;;;;;;4151503;28;20503;-86
2021/12/19 09:22:57;;;;;;;8.83;4.37;;;5.70;99.90;;;;;;4145275;28;20463;-84
2021/12/19 09:24:59;;;;;;;8.27;4.40;;;5.70;99.90;;;;;;4149756;28;20463;-87
2021/12/19 09:27:01;;;;;;;9.07;5.07;;;5.80;99.90;;;;;;4157099;28;20486;-86
2021/12/19 09:29:03;;;;;;;9.60;5.10;;;5.80;99.90;;;;;;4156404;28;20501;-86
2021/12/19 09:31:04;;;;;;;8.67;4.80;;;6.10;99.90;;;;;;4152783;28;20870;-83
2021/12/19 09:33:06;;;;;;;10.23;4.70;;;5.80;99.90;;;;;;4151579;28;20469;-83
2021/12/19 09:35:10;;;;;;;11.60;4.83;;;5.80;99.90;;;;;;4147364;28;20451;-85
2021/12/19 09:37:12;;;;;;;8.60;4.50;;;5.80;99.90;;;;;;4147974;28;20488;-85
2021/12/19 09:39:15;;;;;;;9.20;4.70;;;5.80;99.90;;;;;;4153665;28;20495;-83
2021/12/19 09:41:28;;;;;;;10.07;4.30;;;5.80;99.90;;;;;;4150387;28;20460;-84
2021/12/19 09:43:41;;;;;;;8.37;4.40;;;5.80;99.90;;;;;;4147507;28;21319;-85
2021/12/19 09:45:43;;;;;;;8.43;3.93;;;5.80;99.90;;;;;;4144753;28;20846;-87
2021/12/19 09:47:45;;;;;;;7.77;4.20;;;5.80;99.90;;;;;;4134689;28;20516;-85
2021/12/19 09:49:48;;;;;;;11.43;4.90;;;5.80;99.90;;;;;;4143838;28;20542;-86
2021/12/19 09:51:52;;;;;;;7.53;4.17;;;5.80;99.90;;;;;;4145571;28;20456;-83
2021/12/19 09:53:54;;;;;;;7.93;4.30;;;5.90;99.90;;;;;;4146717;28;21030;-85
2021/12/19 09:55:57;;;;;;;8.13;4.73;;;5.90;99.90;;;;;;4139764;28;20938;-85
2021/12/19 09:57:59;;;;;;;8.50;4.00;;;5.90;99.90;;;;;;4135962;28;20537;-85
2021/12/19 10:00:01;;;;;;;9.37;4.73;;;5.90;99.90;;;;;;4140532;28;20823;-85
2021/12/19 10:02:03;;;;;;;10.53;4.93;;;6.00;99.90;;;;;;4140343;28;20564;-84
2021/12/19 10:04:06;;;;;;;11.23;4.60;;;5.90;99.90;;;;;;4135704;28;20961;-85
2021/12/19 10:06:16;;;;;;;9.43;4.90;;;5.90;99.90;;;;;;4136687;28;20882;-85
2021/12/19 10:08:23;;;;;;;9.10;4.37;;;5.90;99.90;;;;;;4140150;28;20475;-83
2021/12/19 10:10:42;;;;;;;8.67;4.20;;;5.90;99.90;;;;;;4140920;28;20867;-86
2021/12/19 10:12:53;;;;;;;9.07;4.30;;;5.90;99.90;;;;;;4152303;28;20467;-85
2021/12/19 10:14:55;;;;;;;8.10;4.73;;;6.00;99.90;;;;;;4144507;28;20485;-85
2021/12/19 10:16:58;;;;;;;9.47;4.43;;;6.00;99.90;;;;;;4145593;28;20491;-85
2021/12/19 10:19:01;;;;;;;11.60;5.40;;;6.00;99.90;;;;;;4136122;28;20516;-85
2021/12/19 10:21:04;;;;;;;11.47;5.40;;;6.00;99.90;;;;;;4146257;28;20458;-84
2021/12/19 10:23:10;;;;;;;11.43;5.20;;;6.00;99.90;;;;;;4136749;28;20460;-84
2021/12/19 10:25:20;;;;;;;11.00;5.23;;;6.00;99.90;;;;;;4143968;28;20521;-86
2021/12/19 10:27:33;;;;;;;16.40;6.07;;;6.00;99.90;;;;;;4142608;28;20504;-85
2021/12/19 10:29:46;;;;;;;11.43;5.43;;;6.10;99.90;;;;;;4139722;28;20469;-86
2021/12/19 10:32:03;;;;;;;12.93;5.30;;;6.10;99.90;;;;;;4148196;28;20462;-86
2021/12/19 10:34:19;;;;;;;10.73;5.53;;;6.10;99.90;;;;;;4141361;28;20461;-85
2021/12/19 10:36:21;;;;;;;11.03;4.80;;;6.10;99.90;;;;;;4137037;28;20490;-85
2021/12/19 10:38:25;;;;;;;11.23;5.27;;;6.20;99.90;;;;;;4136987;28;20499;-85
2021/12/19 10:40:27;;;;;;;10.80;5.10;;;6.20;99.90;;;;;;4144149;28;20459;-86
2021/12/19 10:42:34;;;;;;;9.87;5.40;;;6.20;99.90;;;;;;4144460;28;20469;-86
2021/12/19 10:47:17;;;;;;;11.00;5.37;;;6.20;99.90;;;;;;4141876;28;20919;-86
2021/12/19 10:49:23;;;;;;;15.57;5.20;;;6.30;99.90;;;;;;4145996;28;20471;-86
2021/12/19 10:51:25;;;;;;;8.50;4.60;;;6.70;99.90;;;;;;4139656;28;20476;-84
2021/12/19 10:53:31;;;;;;;12.27;5.60;;;6.30;99.90;;;;;;4147422;28;20830;-84
2021/12/19 10:55:34;;;;;;;14.50;5.73;;;6.30;99.90;;;;;;4139026;28;20571;-86
2021/12/19 10:57:38;;;;;;;12.53;5.50;;;6.30;99.90;;;;;;4144857;28;20481;-81
2021/12/19 10:59:40;;;;;;;11.67;5.07;;;6.30;99.90;;;;;;4144554;28;21054;-84
2021/12/19 11:01:44;;;;;;;18.30;5.13;;;6.30;99.90;;;;;;4145012;28;20464;-82
2021/12/19 11:03:59;;;;;;;9.10;4.80;;;6.30;99.90;;;;;;4141673;28;20478;-78
2021/12/19 11:06:01;;;;;;;12.60;4.67;;;6.60;99.90;;;;;;4140651;28;20460;-82
2021/12/19 11:08:04;;;;;;;11.03;4.63;;;6.30;99.90;;;;;;4148049;28;20464;-78
2021/12/19 11:10:27;;;;;;;11.97;5.23;;;6.30;99.90;;;;;;4145187;28;20520;-83
2021/12/19 11:12:28;;;;;;;10.00;4.40;;;6.30;99.90;;;;;;4142008;28;20464;-80
2021/12/19 11:14:33;;;;;;;12.50;4.83;;;6.40;99.90;;;;;;4133410;28;20462;-79
2021/12/19 11:16:35;;;;;;;9.33;4.47;;;6.40;99.90;;;;;;4140431;28;20507;-80
2021/12/19 11:18:37;;;;;;;13.80;4.43;;;6.40;99.90;;;;;;4148245;28;20561;-81
2021/12/19 11:20:40;;;;;;;10.50;5.00;;;6.50;99.90;;;;;;4139581;28;21031;-85
2021/12/19 11:22:42;;;;;;;13.63;5.53;;;6.50;99.90;;;;;;4139395;28;20974;-84
2021/12/19 11:24:44;;;;;;;10.27;4.43;;;6.50;99.90;;;;;;4138374;28;21073;-79
2021/12/19 11:26:49;;;;;;;8.27;4.13;;;6.50;99.90;;;;;;4143470;28;20543;-83
2021/12/19 11:28:53;;;;;;;16.63;4.07;;;6.60;99.90;;;;;;4139549;28;20527;-81
2021/12/19 11:30:55;;;;;;;9.47;3.40;;;6.60;99.90;;;;;;4138341;28;21010;-78
2021/12/19 11:33:13;;;;;;;9.03;3.60;;;6.60;99.90;;;;;;4144358;28;20455;-78